Time;durP1;ratioP1;P1;durP2;ratioP2;P2;SDS_P1;SDS_P2;PMS_P1;PMS_P2;Temp;Humidity;BMP_temperature;BMP_pressure;BME280_temperature;BME280_humidity;BME280_pressure;Samples;Min_cycle;Max_cycle;Signal;HPM_P1;HPM_P2
2021/03/07 00:00:56;;;;;;;17.30;7.00;;;;;;;;;;5015785;28;20048;-67
2021/03/07 00:03:22;;;;;;;13.10;7.70;;;;;;;;;;5018610;28;20121;-67
2021/03/07 00:05:49;;;;;;;12.63;7.10;;;;;;;;;;5019542;28;20025;-68
2021/03/07 00:08:15;;;;;;;14.05;7.18;;;;;;;;;;5022952;28;20029;-68
2021/03/07 00:10:41;;;;;;;18.30;7.57;;;;;;;;;;5017186;28;20045;-67
2021/03/07 00:13:07;;;;;;;12.32;7.18;;;;;;;;;;5018061;28;20029;-68
2021/03/07 00:15:33;;;;;;;18.65;8.52;;;;;;;;;;5019327;28;20252;-67
2021/03/07 00:17:59;;;;;;;15.73;8.20;;;;;;;;;;5016036;28;20464;-67
2021/03/07 00:20:25;;;;;;;16.20;7.20;;;;;;;;;;5020130;28;20111;-67
2021/03/07 00:22:51;;;;;;;13.80;7.68;;;;;;;;;;5019273;28;20075;-68
2021/03/07 00:25:18;;;;;;;15.20;7.80;;;;;;;;;;5023918;28;20128;-67
2021/03/07 00:27:44;;;;;;;14.10;6.53;;;;;;;;;;5020399;28;20029;-67
2021/03/07 00:30:11;;;;;;;14.90;7.60;;;;;;;;;;5020174;28;20034;-68
2021/03/07 00:32:37;;;;;;;13.48;7.47;;;;;;;;;;5015595;28;20025;-68
2021/03/07 00:35:04;;;;;;;12.02;7.00;;;;;;;;;;5028285;28;20021;-68
2021/03/07 00:37:30;;;;;;;12.55;7.43;;;;;;;;;;5022160;28;20041;-67
2021/03/07 00:39:56;;;;;;;13.07;7.88;;;;;;;;;;5019191;28;20033;-67
2021/03/07 00:42:22;;;;;;;13.00;7.90;;;;;;;;;;5022613;28;20030;-67
2021/03/07 00:44:48;;;;;;;13.27;7.32;;;;;;;;;;5024842;28;20064;-67
2021/03/07 00:47:15;;;;;;;16.90;7.72;;;;;;;;;;5020383;28;20033;-67
2021/03/07 00:49:41;;;;;;;18.20;8.70;;;;;;;;;;5011827;28;20112;-68
2021/03/07 00:52:07;;;;;;;14.55;7.38;;;;;;;;;;5020808;28;20041;-67
2021/03/07 00:54:33;;;;;;;14.60;7.82;;;;;;;;;;5028132;28;20108;-67
2021/03/07 00:56:59;;;;;;;20.20;9.82;;;;;;;;;;5023369;28;20022;-67
2021/03/07 00:59:25;;;;;;;17.00;9.13;;;;;;;;;;5030128;28;20025;-67
2021/03/07 01:01:52;;;;;;;18.02;9.02;;;;;;;;;;5014806;28;20403;-67
2021/03/07 01:04:18;;;;;;;16.38;10.00;;;;;;;;;;5027583;28;20068;-67
2021/03/07 01:06:44;;;;;;;17.55;10.10;;;;;;;;;;5029436;28;20025;-67
2021/03/07 01:09:10;;;;;;;22.60;10.98;;;;;;;;;;5029382;28;20029;-67
2021/03/07 01:11:36;;;;;;;20.80;11.18;;;;;;;;;;5026941;28;20068;-67
2021/03/07 01:14:05;;;;;;;29.23;13.60;;;;;;;;;;5023296;28;20036;-67
2021/03/07 01:16:31;;;;;;;22.65;13.82;;;;;;;;;;5024365;28;20099;-67
2021/03/07 01:18:57;;;;;;;25.08;13.27;;;;;;;;;;5022557;28;20476;-67
2021/03/07 01:21:23;;;;;;;26.80;15.73;;;;;;;;;;5023786;28;20071;-66
2021/03/07 01:23:49;;;;;;;31.73;14.75;;;;;;;;;;5015100;28;20029;-67
2021/03/07 01:26:15;;;;;;;33.17;15.70;;;;;;;;;;5027908;28;20037;-67
2021/03/07 01:28:41;;;;;;;23.95;14.40;;;;;;;;;;5024361;28;20317;-67
2021/03/07 01:31:07;;;;;;;25.15;12.73;;;;;;;;;;5023437;28;20068;-67
2021/03/07 01:33:33;;;;;;;28.42;13.88;;;;;;;;;;5024438;28;20044;-66
2021/03/07 01:36:02;;;;;;;22.02;11.18;;;;;;;;;;5026469;28;20041;-67
2021/03/07 01:38:29;;;;;;;28.10;12.07;;;;;;;;;;5044241;28;20048;-67
2021/03/07 01:40:55;;;;;;;24.73;10.23;;;;;;;;;;5019305;28;20030;-67
2021/03/07 01:43:22;;;;;;;24.80;11.63;;;;;;;;;;5027696;28;20025;-67
2021/03/07 01:45:48;;;;;;;17.67;10.07;;;;;;;;;;5032842;28;20033;-67
2021/03/07 01:48:15;;;;;;;18.90;10.43;;;;;;;;;;5032499;28;20538;-67
2021/03/07 01:50:43;;;;;;;21.08;9.95;;;;;;;;;;5026138;28;20026;-67
2021/03/07 01:53:10;;;;;;;23.15;10.48;;;;;;;;;;5017120;28;20168;-67
2021/03/07 01:55:38;;;;;;;21.33;9.75;;;;;;;;;;5029040;28;20032;-67
2021/03/07 01:58:07;;;;;;;15.38;9.65;;;;;;;;;;5021926;28;20041;-67
2021/03/07 02:00:33;;;;;;;17.10;10.23;;;;;;;;;;5027905;28;20029;-67
2021/03/07 02:02:59;;;;;;;17.95;9.80;;;;;;;;;;5020636;28;20041;-67
2021/03/07 02:05:26;;;;;;;18.73;9.13;;;;;;;;;;5015684;28;20101;-67
2021/03/07 02:07:52;;;;;;;18.52;9.43;;;;;;;;;;5025781;28;20021;-67
2021/03/07 02:10:26;;;;;;;18.40;10.30;;;;;;;;;;5009247;28;20052;-66
2021/03/07 02:12:54;;;;;;;19.88;12.10;;;;;;;;;;5011781;28;20136;-67
2021/03/07 02:15:21;;;;;;;23.70;11.65;;;;;;;;;;5018591;28;20038;-67
2021/03/07 02:17:47;;;;;;;25.70;13.10;;;;;;;;;;5012224;28;20036;-67
2021/03/07 02:20:15;;;;;;;26.20;12.52;;;;;;;;;;5013174;28;20045;-67
2021/03/07 02:22:43;;;;;;;21.38;12.82;;;;;;;;;;5017909;28;20045;-67
2021/03/07 02:25:11;;;;;;;26.92;12.63;;;;;;;;;;5027008;28;20120;-67
2021/03/07 02:27:38;;;;;;;19.73;11.90;;;;;;;;;;5021081;28;20518;-67
2021/03/07 02:30:09;;;;;;;21.70;12.98;;;;;;;;;;5018316;28;20025;-67
2021/03/07 02:32:37;;;;;;;19.55;13.32;;;;;;;;;;5027726;28;20034;-67
2021/03/07 02:35:05;;;;;;;20.35;12.23;;;;;;;;;;5025468;28;20108;-67
2021/03/07 02:37:32;;;;;;;21.50;11.32;;;;;;;;;;5015978;28;20060;-67
2021/03/07 02:39:59;;;;;;;18.35;11.05;;;;;;;;;;5028070;28;20511;-67
2021/03/07 02:42:27;;;;;;;21.08;12.52;;;;;;;;;;5039695;28;20025;-67
2021/03/07 02:44:54;;;;;;;23.13;11.65;;;;;;;;;;5031188;28;20480;-67
2021/03/07 02:47:22;;;;;;;20.30;11.32;;;;;;;;;;5017140;28;20064;-67
2021/03/07 02:49:48;;;;;;;16.98;10.60;;;;;;;;;;5022031;28;20030;-67
2021/03/07 02:52:14;;;;;;;20.38;11.65;;;;;;;;;;5027929;28;20036;-67
2021/03/07 02:54:42;;;;;;;19.50;11.30;;;;;;;;;;5026335;28;20025;-67
2021/03/07 02:57:09;;;;;;;20.60;10.75;;;;;;;;;;5027313;28;20100;-67
2021/03/07 02:59:37;;;;;;;26.98;10.98;;;;;;;;;;5031448;28;20079;-67
2021/03/07 03:02:03;;;;;;;21.35;13.95;;;;;;;;;;5023049;28;20049;-67
2021/03/07 03:04:30;;;;;;;21.42;12.25;;;;;;;;;;5028115;28;20018;-67
2021/03/07 03:06:57;;;;;;;23.58;12.18;;;;;;;;;;5035530;28;20049;-67
2021/03/07 03:09:23;;;;;;;17.58;11.80;;;;;;;;;;5025462;28;20025;-67
2021/03/07 03:11:53;;;;;;;23.38;12.75;;;;;;;;;;5028164;28;20041;-67
2021/03/07 03:14:19;;;;;;;25.40;12.32;;;;;;;;;;5010526;28;20057;-67
2021/03/07 03:16:48;;;;;;;21.52;12.45;;;;;;;;;;5019749;28;20029;-67
2021/03/07 03:19:14;;;;;;;25.75;12.43;;;;;;;;;;5009988;28;20057;-66
2021/03/07 03:21:43;;;;;;;17.17;11.57;;;;;;;;;;5021261;28;20025;-67
2021/03/07 03:24:09;;;;;;;19.58;11.18;;;;;;;;;;5022969;28;20025;-67
2021/03/07 03:26:36;;;;;;;19.67;11.30;;;;;;;;;;5016871;28;20518;-67
2021/03/07 03:29:06;;;;;;;20.42;11.02;;;;;;;;;;5022840;28;20041;-67
2021/03/07 03:31:32;;;;;;;17.80;10.02;;;;;;;;;;5017828;28;20025;-67
2021/03/07 03:33:59;;;;;;;18.83;11.52;;;;;;;;;;5030367;28;20044;-67
2021/03/07 03:36:25;;;;;;;17.88;11.20;;;;;;;;;;5035924;28;20125;-67
2021/03/07 03:38:53;;;;;;;18.92;10.60;;;;;;;;;;5025903;28;20045;-67
2021/03/07 03:41:23;;;;;;;18.17;10.85;;;;;;;;;;5027266;28;20029;-67
2021/03/07 03:43:51;;;;;;;18.27;11.85;;;;;;;;;;5014862;28;20022;-67
2021/03/07 03:46:18;;;;;;;18.77;10.52;;;;;;;;;;5011819;28;20113;-67
2021/03/07 03:48:48;;;;;;;18.63;10.95;;;;;;;;;;5020732;28;20021;-67
2021/03/07 03:51:15;;;;;;;14.20;10.18;;;;;;;;;;5022474;28;20392;-67
2021/03/07 03:53:42;;;;;;;20.75;11.20;;;;;;;;;;5024190;28;20022;-67
2021/03/07 03:56:09;;;;;;;17.77;10.50;;;;;;;;;;5025315;28;20034;-67
2021/03/07 03:58:40;;;;;;;17.20;11.48;;;;;;;;;;5019569;28;20079;-67
2021/03/07 04:01:07;;;;;;;19.77;11.60;;;;;;;;;;5027286;28;20029;-67
2021/03/07 04:03:34;;;;;;;19.27;11.80;;;;;;;;;;5011440;28;20029;-67
2021/03/07 04:06:00;;;;;;;20.63;12.48;;;;;;;;;;5011009;28;20033;-67
2021/03/07 04:08:26;;;;;;;20.15;12.68;;;;;;;;;;5020757;28;20029;-67
2021/03/07 04:10:53;;;;;;;19.42;11.32;;;;;;;;;;5027793;28;20057;-67
2021/03/07 04:13:28;;;;;;;17.60;11.95;;;;;;;;;;5027884;28;20026;-67
2021/03/07 04:15:55;;;;;;;22.35;11.43;;;;;;;;;;5023283;28;20286;-67
2021/03/07 04:18:23;;;;;;;19.88;12.02;;;;;;;;;;5010409;28;20026;-68
2021/03/07 04:20:49;;;;;;;18.73;11.80;;;;;;;;;;5016293;28;20080;-67
2021/03/07 04:23:16;;;;;;;20.70;12.77;;;;;;;;;;5028527;28;20032;-68
2021/03/07 04:25:42;;;;;;;18.63;11.32;;;;;;;;;;5014538;28;20059;-68
2021/03/07 04:28:08;;;;;;;22.40;11.50;;;;;;;;;;5027201;28;20021;-67
2021/03/07 04:30:35;;;;;;;18.05;11.35;;;;;;;;;;5016719;28;20030;-67
2021/03/07 04:33:01;;;;;;;22.70;12.50;;;;;;;;;;5019022;28;20037;-68
2021/03/07 04:35:28;;;;;;;19.50;12.10;;;;;;;;;;5022916;28;20408;-68
2021/03/07 04:37:57;;;;;;;20.00;12.40;;;;;;;;;;5027531;28;20026;-68
2021/03/07 04:40:23;;;;;;;20.55;12.65;;;;;;;;;;5027714;28;20033;-68
2021/03/07 04:42:49;;;;;;;22.55;12.95;;;;;;;;;;5033877;28;20104;-68
2021/03/07 04:45:15;;;;;;;19.10;13.00;;;;;;;;;;5048227;28;20032;-68
2021/03/07 04:47:42;;;;;;;19.98;13.82;;;;;;;;;;5029826;28;20080;-68
2021/03/07 04:50:09;;;;;;;22.85;13.45;;;;;;;;;;5021963;28;20056;-68
2021/03/07 04:52:35;;;;;;;18.30;12.52;;;;;;;;;;5045217;28;20033;-68
2021/03/07 04:55:01;;;;;;;19.58;12.98;;;;;;;;;;5041514;28;20038;-68
2021/03/07 04:57:27;;;;;;;19.17;12.65;;;;;;;;;;5026714;28;20038;-68
2021/03/07 04:59:53;;;;;;;22.60;12.82;;;;;;;;;;5026970;28;20028;-68
2021/03/07 05:02:19;;;;;;;22.05;12.55;;;;;;;;;;5045380;28;20082;-68
2021/03/07 05:04:45;;;;;;;19.20;12.23;;;;;;;;;;5027890;28;20021;-68
2021/03/07 05:07:11;;;;;;;18.10;12.10;;;;;;;;;;5029905;28;20044;-68
2021/03/07 05:09:37;;;;;;;22.45;11.98;;;;;;;;;;5029772;28;20029;-68
2021/03/07 05:12:04;;;;;;;20.40;12.77;;;;;;;;;;5027549;28;20042;-69
2021/03/07 05:14:30;;;;;;;22.55;12.82;;;;;;;;;;5033809;28;20029;-68
2021/03/07 05:16:56;;;;;;;22.13;12.55;;;;;;;;;;5025282;28;20032;-69
2021/03/07 05:19:22;;;;;;;18.17;12.25;;;;;;;;;;5030448;28;20235;-69
2021/03/07 05:21:48;;;;;;;20.08;12.65;;;;;;;;;;5022079;28;20108;-69
2021/03/07 05:24:14;;;;;;;20.42;12.77;;;;;;;;;;5013824;28;20022;-69
2021/03/07 05:26:40;;;;;;;19.35;12.65;;;;;;;;;;5025045;28;20044;-69
2021/03/07 05:29:06;;;;;;;20.10;12.57;;;;;;;;;;5032579;28;20022;-69
2021/03/07 05:31:32;;;;;;;21.17;11.63;;;;;;;;;;5031111;28;20038;-69
2021/03/07 05:33:58;;;;;;;17.67;11.23;;;;;;;;;;5029748;28;20021;-69
2021/03/07 05:36:24;;;;;;;21.17;11.90;;;;;;;;;;5037246;28;20040;-69
2021/03/07 05:38:50;;;;;;;17.48;11.52;;;;;;;;;;5037699;28;20108;-69
2021/03/07 05:41:16;;;;;;;23.70;12.32;;;;;;;;;;5023748;28;20033;-69
2021/03/07 05:43:43;;;;;;;18.33;11.48;;;;;;;;;;5033773;28;20017;-70
2021/03/07 05:46:09;;;;;;;21.50;12.25;;;;;;;;;;5050620;28;20021;-69
2021/03/07 05:48:35;;;;;;;19.98;11.07;;;;;;;;;;5023092;28;20310;-70
2021/03/07 05:51:01;;;;;;;16.35;11.63;;;;;;;;;;5018987;28;20025;-70
2021/03/07 05:53:30;;;;;;;15.20;11.15;;;;;;;;;;5027934;28;20049;-70
2021/03/07 05:55:56;;;;;;;17.60;11.15;;;;;;;;;;5027264;28;20487;-70
2021/03/07 05:58:22;;;;;;;21.17;11.90;;;;;;;;;;5022478;28;20116;-70
2021/03/07 06:00:48;;;;;;;20.20;12.32;;;;;;;;;;5020824;28;20040;-70
2021/03/07 06:03:14;;;;;;;19.25;11.95;;;;;;;;;;5021948;28;20029;-70
2021/03/07 06:05:41;;;;;;;19.42;12.25;;;;;;;;;;5028370;28;20036;-70
2021/03/07 06:08:07;;;;;;;19.83;11.93;;;;;;;;;;5020782;28;20032;-70
2021/03/07 06:10:33;;;;;;;21.15;13.05;;;;;;;;;;5021161;28;20037;-70
2021/03/07 06:13:02;;;;;;;18.83;12.23;;;;;;;;;;5020789;28;20499;-70
2021/03/07 06:15:28;;;;;;;21.50;12.52;;;;;;;;;;5032929;28;20022;-70
2021/03/07 06:17:54;;;;;;;19.88;12.48;;;;;;;;;;5016929;28;20045;-70
2021/03/07 06:20:24;;;;;;;20.40;12.63;;;;;;;;;;5020593;28;20022;-70
2021/03/07 06:22:52;;;;;;;21.08;13.15;;;;;;;;;;5013435;28;20010;-70
2021/03/07 06:25:18;;;;;;;22.25;13.30;;;;;;;;;;5021653;28;20029;-70
2021/03/07 06:27:44;;;;;;;24.13;13.30;;;;;;;;;;5027465;28;20041;-70
2021/03/07 06:30:14;;;;;;;20.88;12.43;;;;;;;;;;5021910;28;20030;-70
2021/03/07 06:32:44;;;;;;;21.20;13.43;;;;;;;;;;5017441;28;20033;-70
2021/03/07 06:35:13;;;;;;;21.75;12.40;;;;;;;;;;5031216;28;20419;-70
2021/03/07 06:37:55;;;;;;;18.75;13.82;;;;;;;;;;5030108;28;20033;-70
2021/03/07 06:40:26;;;;;;;22.20;14.43;;;;;;;;;;5023073;28;20073;-70
2021/03/07 06:42:52;;;;;;;24.90;14.80;;;;;;;;;;5019942;28;20164;-70
2021/03/07 06:45:19;;;;;;;23.27;15.65;;;;;;;;;;5027362;28;20033;-70
2021/03/07 06:47:58;;;;;;;22.75;14.07;;;;;;;;;;5025594;28;20033;-70
2021/03/07 06:50:24;;;;;;;26.13;14.55;;;;;;;;;;5017061;28;20029;-70
2021/03/07 06:52:53;;;;;;;21.58;13.55;;;;;;;;;;5025340;28;20025;-70
2021/03/07 06:55:20;;;;;;;21.15;14.30;;;;;;;;;;5027594;28;20038;-70
2021/03/07 06:57:46;;;;;;;24.48;14.55;;;;;;;;;;5014911;28;20026;-70
2021/03/07 07:00:12;;;;;;;22.67;15.00;;;;;;;;;;5020757;28;20396;-70
2021/03/07 07:02:39;;;;;;;22.08;15.18;;;;;;;;;;5017797;28;20036;-70
2021/03/07 07:05:05;;;;;;;25.10;15.48;;;;;;;;;;5020680;28;20123;-70
2021/03/07 07:07:31;;;;;;;24.33;15.85;;;;;;;;;;5024491;28;20033;-70
2021/03/07 07:09:58;;;;;;;25.08;15.10;;;;;;;;;;5014054;28;20038;-70
2021/03/07 07:12:26;;;;;;;25.33;15.65;;;;;;;;;;5034184;28;20029;-70
2021/03/07 07:15:03;;;;;;;27.23;15.98;;;;;;;;;;5032989;28;20056;-70
2021/03/07 07:17:29;;;;;;;26.50;16.42;;;;;;;;;;5027276;28;20585;-70
2021/03/07 07:19:56;;;;;;;29.10;17.48;;;;;;;;;;5023883;28;20022;-70
2021/03/07 07:22:22;;;;;;;25.58;17.27;;;;;;;;;;5025972;28;20080;-70
2021/03/07 07:24:48;;;;;;;23.33;16.08;;;;;;;;;;5022033;28;20068;-70
2021/03/07 07:27:15;;;;;;;24.42;15.63;;;;;;;;;;5016213;28;20038;-70
2021/03/07 07:29:41;;;;;;;25.38;16.50;;;;;;;;;;5026068;28;20171;-70
2021/03/07 07:32:17;;;;;;;24.33;17.17;;;;;;;;;;5025320;28;20447;-69
2021/03/07 07:34:48;;;;;;;26.83;16.77;;;;;;;;;;5017827;28;20025;-69
2021/03/07 07:37:32;;;;;;;28.45;18.90;;;;;;;;;;5018469;28;20034;-69
2021/03/07 07:39:59;;;;;;;28.60;18.55;;;;;;;;;;5025636;28;20041;-69
2021/03/07 07:42:27;;;;;;;29.27;19.88;;;;;;;;;;5015702;28;20026;-68
2021/03/07 07:44:54;;;;;;;31.17;18.95;;;;;;;;;;5025298;28;20092;-68
2021/03/07 07:47:20;;;;;;;32.50;19.63;;;;;;;;;;5025585;28;20542;-67
2021/03/07 07:49:55;;;;;;;32.40;18.85;;;;;;;;;;5036808;28;20080;-67
2021/03/07 07:52:24;;;;;;;27.00;18.48;;;;;;;;;;5026501;28;20409;-67
2021/03/07 07:55:17;;;;;;;30.13;19.25;;;;;;;;;;5027303;28;20025;-67
2021/03/07 07:57:45;;;;;;;30.27;20.85;;;;;;;;;;5027342;28;20576;-67
2021/03/07 08:00:15;;;;;;;30.35;20.92;;;;;;;;;;5024320;28;20496;-67
2021/03/07 08:02:45;;;;;;;39.95;24.63;;;;;;;;;;5020582;28;20024;-67
2021/03/07 08:05:24;;;;;;;35.20;23.50;;;;;;;;;;5026325;28;20108;-67
2021/03/07 08:08:04;;;;;;;37.53;24.42;;;;;;;;;;5019604;28;20036;-66
2021/03/07 08:10:39;;;;;;;41.05;23.02;;;;;;;;;;5025986;28;20037;-66
2021/03/07 08:13:12;;;;;;;34.25;21.88;;;;;;;;;;5013623;28;20038;-67
2021/03/07 08:15:41;;;;;;;37.83;21.13;;;;;;;;;;5025203;28;20083;-67
2021/03/07 08:18:07;;;;;;;35.55;21.15;;;;;;;;;;5033321;28;20443;-67
2021/03/07 08:20:43;;;;;;;40.92;22.15;;;;;;;;;;5024387;28;20018;-66
2021/03/07 08:23:10;;;;;;;38.55;18.73;;;;;;;;;;5028534;28;20037;-66
2021/03/07 08:25:51;;;;;;;37.33;22.52;;;;;;;;;;5027066;28;20083;-66
2021/03/07 08:28:26;;;;;;;26.45;15.25;;;;;;;;;;5028650;28;20087;-67
2021/03/07 08:30:53;;;;;;;34.03;20.67;;;;;;;;;;5028301;28;20018;-66
2021/03/07 08:33:22;;;;;;;32.22;20.42;;;;;;;;;;5017316;28;20025;-67
2021/03/07 08:36:07;;;;;;;29.48;19.38;;;;;;;;;;5027176;28;20040;-67
2021/03/07 08:38:33;;;;;;;30.70;19.73;;;;;;;;;;5020947;28;20051;-67
2021/03/07 08:40:59;;;;;;;28.60;18.15;;;;;;;;;;5020558;28;20484;-67
2021/03/07 08:43:25;;;;;;;32.47;18.75;;;;;;;;;;5015602;28;20017;-67
2021/03/07 08:46:01;;;;;;;36.25;16.83;;;;;;;;;;5021799;28;20034;-67
2021/03/07 08:48:28;;;;;;;28.27;16.98;;;;;;;;;;5018410;28;20049;-67
2021/03/07 08:50:54;;;;;;;30.77;17.30;;;;;;;;;;5024093;28;20036;-67
2021/03/07 08:53:22;;;;;;;28.48;16.35;;;;;;;;;;5026029;28;20033;-67
2021/03/07 08:55:48;;;;;;;29.85;16.75;;;;;;;;;;5025192;28;20055;-67
2021/03/07 08:58:15;;;;;;;27.73;16.15;;;;;;;;;;5024865;28;20040;-67
2021/03/07 09:00:51;;;;;;;35.90;16.40;;;;;;;;;;5028816;28;20446;-67
2021/03/07 09:03:17;;;;;;;24.75;14.57;;;;;;;;;;5013965;28;20048;-67
2021/03/07 09:05:44;;;;;;;27.38;14.75;;;;;;;;;;5019225;28;20105;-67
2021/03/07 09:08:10;;;;;;;26.48;15.10;;;;;;;;;;5026243;28;20199;-67
2021/03/07 09:10:38;;;;;;;23.30;12.75;;;;;;;;;;5025794;28;20046;-67
2021/03/07 09:13:10;;;;;;;22.23;14.40;;;;;;;;;;5017050;28;20026;-67
2021/03/07 09:15:37;;;;;;;25.58;15.10;;;;;;;;;;5020614;28;20435;-67
2021/03/07 09:18:04;;;;;;;26.95;16.30;;;;;;;;;;5020378;28;20029;-67
2021/03/07 09:20:59;;;;;;;26.40;15.57;;;;;;;;;;5013041;28;20112;-67
2021/03/07 09:23:32;;;;;;;26.25;15.52;;;;;;;;;;5012062;28;20088;-67
2021/03/07 09:26:00;;;;;;;26.90;15.30;;;;;;;;;;5017686;28;20018;-67
2021/03/07 09:28:46;;;;;;;23.92;13.90;;;;;;;;;;5022658;28;20597;-67
2021/03/07 09:31:16;;;;;;;24.00;15.85;;;;;;;;;;5027750;28;20554;-67
2021/03/07 09:33:53;;;;;;;23.45;15.80;;;;;;;;;;5030552;28;20040;-68
2021/03/07 09:36:23;;;;;;;25.80;15.15;;;;;;;;;;5027736;28;20032;-67
2021/03/07 09:38:53;;;;;;;24.63;15.13;;;;;;;;;;5022611;28;20040;-67
2021/03/07 09:41:28;;;;;;;27.00;16.15;;;;;;;;;;5024960;28;20057;-67
2021/03/07 09:43:55;;;;;;;20.65;13.50;;;;;;;;;;5022440;28;20029;-67
2021/03/07 09:46:21;;;;;;;22.10;15.45;;;;;;;;;;5021997;28;20025;-67
2021/03/07 09:48:48;;;;;;;22.75;15.73;;;;;;;;;;5021822;28;20087;-67
2021/03/07 09:51:15;;;;;;;26.92;15.75;;;;;;;;;;5018917;28;20552;-68
2021/03/07 09:53:41;;;;;;;23.48;15.90;;;;;;;;;;5024279;28;20104;-67
2021/03/07 09:56:28;;;;;;;26.00;16.05;;;;;;;;;;5024179;28;20025;-67
2021/03/07 09:58:55;;;;;;;23.73;14.65;;;;;;;;;;5019923;28;21757;-67
2021/03/07 10:01:21;;;;;;;24.33;15.57;;;;;;;;;;5018257;28;20108;-67
2021/03/07 10:03:47;;;;;;;21.73;15.65;;;;;;;;;;5020505;28;20118;-67
2021/03/07 10:06:13;;;;;;;21.20;14.60;;;;;;;;;;5021551;28;20447;-67
2021/03/07 10:08:40;;;;;;;24.58;15.20;;;;;;;;;;5018859;28;20089;-67
2021/03/07 10:11:26;;;;;;;21.58;14.85;;;;;;;;;;5016595;28;20060;-67
2021/03/07 10:14:05;;;;;;;23.45;14.23;;;;;;;;;;5020433;28;20030;-67
2021/03/07 10:16:35;;;;;;;24.48;14.20;;;;;;;;;;5022543;28;20036;-67
2021/03/07 10:19:14;;;;;;;17.67;12.52;;;;;;;;;;5024512;28;20056;-67
2021/03/07 10:21:41;;;;;;;23.02;13.52;;;;;;;;;;5028285;28;20041;-67
2021/03/07 10:24:11;;;;;;;26.35;13.77;;;;;;;;;;5021837;28;20030;-67
2021/03/07 10:26:38;;;;;;;22.98;12.48;;;;;;;;;;5027546;28;20021;-67
2021/03/07 10:29:23;;;;;;;22.20;13.38;;;;;;;;;;5022370;28;20030;-67
2021/03/07 10:31:59;;;;;;;18.75;12.50;;;;;;;;;;5027025;28;20032;-67
2021/03/07 10:34:39;;;;;;;16.27;12.13;;;;;;;;;;5025999;28;20029;-67
2021/03/07 10:37:06;;;;;;;23.00;13.75;;;;;;;;;;5018989;28;20518;-67
2021/03/07 10:39:32;;;;;;;21.02;13.68;;;;;;;;;;5019351;28;20084;-67
2021/03/07 10:42:04;;;;;;;21.42;13.73;;;;;;;;;;5020278;28;20589;-67
2021/03/07 10:44:30;;;;;;;20.65;13.35;;;;;;;;;;5018390;28;20022;-67
2021/03/07 10:46:56;;;;;;;19.23;13.63;;;;;;;;;;5022344;28;22228;-67
2021/03/07 10:49:22;;;;;;;19.48;12.63;;;;;;;;;;5019873;28;20558;-67
2021/03/07 10:51:48;;;;;;;19.67;12.65;;;;;;;;;;5028026;28;20048;-67
2021/03/07 10:54:14;;;;;;;22.13;12.57;;;;;;;;;;5015272;28;20091;-67
2021/03/07 10:56:41;;;;;;;20.15;12.18;;;;;;;;;;5021144;28;20038;-67
2021/03/07 10:59:07;;;;;;;19.10;11.10;;;;;;;;;;5024777;28;20053;-67
2021/03/07 11:01:34;;;;;;;16.92;11.15;;;;;;;;;;5028743;28;20025;-68
2021/03/07 11:04:00;;;;;;;18.00;11.50;;;;;;;;;;5019569;28;20014;-67
2021/03/07 11:06:26;;;;;;;20.42;11.38;;;;;;;;;;5020346;28;20054;-68
2021/03/07 11:08:53;;;;;;;15.75;11.32;;;;;;;;;;5020717;28;20025;-67
2021/03/07 11:11:19;;;;;;;16.38;10.30;;;;;;;;;;5027142;28;20053;-67
2021/03/07 11:13:45;;;;;;;16.50;10.32;;;;;;;;;;5025522;28;20047;-67
2021/03/07 11:16:11;;;;;;;16.20;9.57;;;;;;;;;;5025590;28;20511;-67
2021/03/07 11:18:38;;;;;;;16.33;10.35;;;;;;;;;;5025889;28;20432;-67
2021/03/07 11:21:04;;;;;;;15.52;9.65;;;;;;;;;;5023400;28;20032;-67
2021/03/07 11:23:31;;;;;;;15.90;9.88;;;;;;;;;;5016334;28;20029;-67
2021/03/07 11:25:57;;;;;;;19.00;11.50;;;;;;;;;;5022767;28;20491;-67
2021/03/07 11:28:23;;;;;;;15.98;11.18;;;;;;;;;;5027867;28;20565;-67
2021/03/07 11:30:49;;;;;;;16.48;11.90;;;;;;;;;;5015966;28;20041;-67
2021/03/07 11:33:15;;;;;;;24.80;13.63;;;;;;;;;;5022544;28;20033;-67
2021/03/07 11:35:41;;;;;;;20.02;12.60;;;;;;;;;;5026804;28;20053;-67
2021/03/07 11:38:07;;;;;;;19.45;12.55;;;;;;;;;;5018582;28;20577;-67
2021/03/07 11:40:33;;;;;;;15.85;11.35;;;;;;;;;;5020538;28;20057;-67
2021/03/07 11:42:59;;;;;;;19.95;13.48;;;;;;;;;;5023984;28;20025;-67
2021/03/07 11:45:26;;;;;;;18.50;13.10;;;;;;;;;;5020683;28;20064;-67
2021/03/07 11:47:52;;;;;;;17.48;11.32;;;;;;;;;;5021485;28;20029;-67
2021/03/07 11:50:18;;;;;;;18.52;12.73;;;;;;;;;;5011440;28;20065;-67
2021/03/07 11:52:44;;;;;;;21.08;13.30;;;;;;;;;;5025927;28;20036;-67
2021/03/07 11:55:10;;;;;;;18.42;11.85;;;;;;;;;;5017372;28;20603;-67
2021/03/07 11:57:37;;;;;;;22.20;13.80;;;;;;;;;;5020719;28;20491;-67
2021/03/07 12:00:04;;;;;;;20.38;12.60;;;;;;;;;;5014360;28;20041;-67
2021/03/07 12:02:30;;;;;;;18.95;13.10;;;;;;;;;;5018201;28;20018;-67
2021/03/07 12:04:56;;;;;;;17.58;12.95;;;;;;;;;;5019706;28;20033;-67
2021/03/07 12:07:23;;;;;;;20.00;13.02;;;;;;;;;;5020586;28;20083;-67
2021/03/07 12:09:49;;;;;;;18.65;12.05;;;;;;;;;;5019795;28;20041;-67
2021/03/07 12:12:15;;;;;;;17.13;12.18;;;;;;;;;;5020985;28;20025;-67
2021/03/07 12:14:42;;;;;;;20.00;12.63;;;;;;;;;;5025318;28;20032;-67
2021/03/07 12:17:08;;;;;;;14.55;10.73;;;;;;;;;;5028253;28;20563;-67
2021/03/07 12:19:34;;;;;;;19.58;11.30;;;;;;;;;;5024308;28;20132;-67
2021/03/07 12:22:00;;;;;;;21.92;11.88;;;;;;;;;;5024518;28;20021;-67
2021/03/07 12:24:28;;;;;;;20.63;13.63;;;;;;;;;;5021668;28;20017;-67
2021/03/07 12:26:55;;;;;;;19.33;12.43;;;;;;;;;;5018199;28;20026;-67
2021/03/07 12:29:21;;;;;;;18.70;11.68;;;;;;;;;;5017767;28;20033;-67
2021/03/07 12:31:47;;;;;;;17.05;11.10;;;;;;;;;;5019084;28;20527;-67
2021/03/07 12:34:13;;;;;;;18.25;12.00;;;;;;;;;;5016914;28;20508;-67
2021/03/07 12:36:39;;;;;;;19.05;11.98;;;;;;;;;;5019888;28;20034;-67
2021/03/07 12:39:05;;;;;;;18.88;10.98;;;;;;;;;;5017899;28;20048;-67
2021/03/07 12:41:31;;;;;;;17.40;12.02;;;;;;;;;;5018406;28;20037;-68
2021/03/07 12:43:57;;;;;;;18.77;11.70;;;;;;;;;;5020458;28;20021;-68
2021/03/07 12:46:23;;;;;;;22.48;13.25;;;;;;;;;;5020483;28;20022;-68
2021/03/07 12:48:49;;;;;;;19.45;12.80;;;;;;;;;;5013674;28;20025;-68
2021/03/07 12:51:15;;;;;;;20.58;12.57;;;;;;;;;;5013616;28;20496;-68
2021/03/07 12:53:41;;;;;;;19.75;13.25;;;;;;;;;;5019112;28;20029;-68
2021/03/07 12:56:07;;;;;;;21.83;11.98;;;;;;;;;;5019210;28;20030;-68
2021/03/07 12:58:34;;;;;;;14.52;11.15;;;;;;;;;;5016221;28;20120;-68
2021/03/07 13:01:00;;;;;;;19.75;12.65;;;;;;;;;;5017370;28;20064;-68
2021/03/07 13:03:26;;;;;;;18.65;13.07;;;;;;;;;;5025353;28;20038;-68
2021/03/07 13:05:52;;;;;;;20.30;13.10;;;;;;;;;;5020810;28;20041;-68
2021/03/07 13:08:18;;;;;;;21.65;14.13;;;;;;;;;;5020559;28;20045;-68
2021/03/07 13:10:44;;;;;;;21.60;13.85;;;;;;;;;;5023430;28;20034;-68
2021/03/07 13:13:10;;;;;;;21.30;13.18;;;;;;;;;;5023637;28;20033;-68
2021/03/07 13:15:36;;;;;;;21.40;12.70;;;;;;;;;;5027010;28;20022;-68
2021/03/07 13:18:02;;;;;;;21.85;13.05;;;;;;;;;;5025569;28;20033;-69
2021/03/07 13:20:28;;;;;;;18.60;12.80;;;;;;;;;;5019037;28;20033;-68
2021/03/07 13:22:54;;;;;;;19.08;12.05;;;;;;;;;;5025159;28;20032;-69
2021/03/07 13:25:20;;;;;;;17.90;12.63;;;;;;;;;;5018792;28;20084;-68
2021/03/07 13:27:46;;;;;;;18.23;11.85;;;;;;;;;;5022663;28;20084;-68
2021/03/07 13:30:13;;;;;;;18.48;11.15;;;;;;;;;;5021833;28;20034;-68
2021/03/07 13:32:39;;;;;;;20.15;12.50;;;;;;;;;;5017396;28;20029;-68
2021/03/07 13:35:05;;;;;;;18.48;11.80;;;;;;;;;;5024289;28;20021;-68
2021/03/07 13:37:31;;;;;;;18.88;11.15;;;;;;;;;;5017685;28;20435;-68
2021/03/07 13:39:57;;;;;;;23.02;12.05;;;;;;;;;;5025558;28;20029;-69
2021/03/07 13:42:23;;;;;;;21.90;11.38;;;;;;;;;;5028695;28;20025;-68
2021/03/07 13:44:49;;;;;;;21.60;11.25;;;;;;;;;;5030986;28;20037;-68
2021/03/07 13:47:15;;;;;;;24.55;12.90;;;;;;;;;;5028570;28;20029;-69
2021/03/07 13:49:41;;;;;;;17.70;11.68;;;;;;;;;;5026547;28;20018;-68
2021/03/07 13:52:07;;;;;;;17.90;12.10;;;;;;;;;;5012940;28;20026;-69
2021/03/07 13:54:33;;;;;;;23.17;11.90;;;;;;;;;;5022565;28;20024;-69
2021/03/07 13:57:00;;;;;;;17.23;11.27;;;;;;;;;;5020034;28;20116;-68
2021/03/07 13:59:26;;;;;;;18.40;12.20;;;;;;;;;;5019962;28;20592;-68
2021/03/07 14:01:52;;;;;;;16.73;10.93;;;;;;;;;;5018019;28;20030;-69
2021/03/07 14:04:18;;;;;;;20.95;11.25;;;;;;;;;;5025005;28;20771;-68
2021/03/07 14:06:44;;;;;;;16.77;10.00;;;;;;;;;;5019671;28;20041;-68
2021/03/07 14:09:10;;;;;;;16.02;9.85;;;;;;;;;;5016074;28;20403;-68
2021/03/07 14:11:36;;;;;;;22.38;11.07;;;;;;;;;;5031398;28;20050;-68
2021/03/07 14:14:03;;;;;;;15.98;9.77;;;;;;;;;;5028763;28;20021;-68
2021/03/07 14:16:29;;;;;;;14.75;9.85;;;;;;;;;;5027139;28;20022;-68
2021/03/07 14:18:55;;;;;;;18.33;10.60;;;;;;;;;;5018168;28;20034;-68
2021/03/07 14:21:21;;;;;;;18.92;10.05;;;;;;;;;;5023126;28;20472;-68